createdAt,value
2018-08-09T00:00:58.864Z,6.77
2018-08-09T00:03:27.261Z,6.77
2018-08-09T00:05:55.647Z,5.17
2018-08-09T00:08:24.092Z,13.33
2018-08-09T00:10:52.684Z,5.97
2018-08-09T00:13:21.059Z,11.63
2018-08-09T00:15:49.523Z,9.57
2018-08-09T00:18:17.941Z,7.90
2018-08-09T00:20:46.566Z,11.63
2018-08-09T00:23:14.957Z,10.37
2018-08-09T00:25:43.346Z,11.47
2018-08-09T00:28:11.997Z,14.13
2018-08-09T00:30:40.394Z,12.80
2018-08-09T00:33:08.802Z,6.63
2018-08-09T00:35:37.201Z,8.67
2018-08-09T00:38:05.629Z,7.60
2018-08-09T00:40:34.048Z,7.87
2018-08-09T00:43:02.673Z,11.30
2018-08-09T00:45:31.075Z,6.50
2018-08-09T00:47:59.520Z,7.30
2018-08-09T00:50:27.928Z,11.70
2018-08-09T00:52:56.589Z,9.77
2018-08-09T00:55:25.311Z,8.50
2018-08-09T00:57:53.685Z,6.03
2018-08-09T01:00:22.094Z,7.70
2018-08-09T01:02:50.488Z,8.40
2018-08-09T01:05:18.888Z,8.67
2018-08-09T01:07:47.300Z,13.20
2018-08-09T01:10:15.712Z,6.70
2018-08-09T01:12:44.144Z,10.33
2018-08-09T01:15:12.774Z,6.80
2018-08-09T01:17:41.216Z,8.03
2018-08-09T01:20:09.648Z,7.73
2018-08-09T01:22:38.240Z,6.80
2018-08-09T01:25:06.714Z,9.33
2018-08-09T01:27:35.103Z,12.30
2018-08-09T01:30:03.582Z,10.50
2018-08-09T01:32:31.965Z,8.67
2018-08-09T01:35:00.546Z,7.90
2018-08-09T01:37:28.939Z,6.23
2018-08-09T01:39:57.331Z,9.70
2018-08-09T01:42:37.091Z,8.27
2018-08-09T01:45:05.495Z,7.00
2018-08-09T01:47:33.992Z,11.60
2018-08-09T01:50:02.568Z,12.67
2018-08-09T01:52:31.111Z,6.37
2018-08-09T01:54:59.488Z,7.10
2018-08-09T01:57:27.880Z,10.73
2018-08-09T01:59:56.388Z,11.10
2018-08-09T02:02:24.789Z,9.00
2018-08-09T02:04:53.269Z,17.37
2018-08-09T02:07:21.596Z,8.80
2018-08-09T02:09:49.974Z,10.60
2018-08-09T02:12:18.385Z,12.07
2018-08-09T02:14:46.776Z,9.43
2018-08-09T02:17:15.360Z,6.83
2018-08-09T02:19:43.727Z,10.00
2018-08-09T02:22:12.113Z,12.43
2018-08-09T02:24:40.553Z,8.90
2018-08-09T02:27:08.962Z,11.50
2018-08-09T02:29:37.359Z,7.20
2018-08-09T02:32:05.744Z,8.77
2018-08-09T02:34:34.151Z,7.87
2018-08-09T02:37:02.532Z,9.73
2018-08-09T02:39:30.920Z,7.33
2018-08-09T02:41:59.346Z,6.00
2018-08-09T02:44:27.719Z,11.00
2018-08-09T02:46:56.122Z,11.73
2018-08-09T02:49:24.721Z,13.70
2018-08-09T02:51:53.104Z,19.20
2018-08-09T02:54:21.650Z,12.47
2018-08-09T02:56:50.068Z,10.70
2018-08-09T02:59:18.463Z,15.17
2018-08-09T03:01:46.976Z,16.73
2018-08-09T03:04:15.361Z,12.97
2018-08-09T03:06:43.775Z,12.80
2018-08-09T03:09:13.766Z,7.57
2018-08-09T03:11:43.216Z,11.53
2018-08-09T03:14:11.717Z,21.60
2018-08-09T03:16:40.316Z,15.73
2018-08-09T03:19:08.744Z,10.60
2018-08-09T03:21:37.148Z,8.80
2018-08-09T03:24:05.635Z,11.60
2018-08-09T03:26:34.068Z,12.43
2018-08-09T03:29:02.484Z,15.10
2018-08-09T03:31:30.867Z,5.47
2018-08-09T03:33:59.264Z,11.43
2018-08-09T03:36:27.856Z,7.80
2018-08-09T03:38:56.268Z,7.83
2018-08-09T03:41:24.664Z,8.20
2018-08-09T03:43:53.090Z,10.53
2018-08-09T03:46:21.489Z,11.20
2018-08-09T03:48:50.155Z,10.60
2018-08-09T03:51:19.089Z,7.13
2018-08-09T03:53:47.475Z,7.13
2018-08-09T03:56:15.877Z,7.60
2018-08-09T03:58:44.261Z,12.93
2018-08-09T04:01:12.672Z,6.90
2018-08-09T04:03:41.100Z,13.90
2018-08-09T04:06:09.771Z,10.47
2018-08-09T04:08:38.512Z,16.53
2018-08-09T04:11:06.917Z,8.63
2018-08-09T04:13:35.576Z,11.60
2018-08-09T04:16:04.014Z,12.87
2018-08-09T04:18:32.415Z,8.83
2018-08-09T04:21:00.836Z,11.93
2018-08-09T04:23:29.246Z,11.17
2018-08-09T04:25:57.640Z,22.43
2018-08-09T04:28:26.017Z,12.60
2018-08-09T04:30:54.624Z,9.80
2018-08-09T04:33:23.003Z,14.37
2018-08-09T04:35:51.382Z,8.30
2018-08-09T04:38:19.902Z,10.10
2018-08-09T04:40:48.324Z,9.87
2018-08-09T04:43:16.736Z,9.97
2018-08-09T04:45:45.387Z,14.60
2018-08-09T04:48:13.980Z,8.53
2018-08-09T04:50:42.384Z,10.23
2018-08-09T04:53:11.008Z,17.37
2018-08-09T04:55:39.396Z,14.00
2018-08-09T04:58:07.832Z,8.30
2018-08-09T05:00:36.702Z,15.90
2018-08-09T05:03:05.130Z,11.33
2018-08-09T05:05:33.520Z,11.80
2018-08-09T05:08:01.957Z,13.80
2018-08-09T05:10:30.339Z,8.23
2018-08-09T05:12:58.900Z,9.40
2018-08-09T05:15:27.281Z,11.70
2018-08-09T05:17:55.687Z,11.03
2018-08-09T05:20:24.094Z,16.10
2018-08-09T05:22:52.482Z,13.43
2018-08-09T05:25:21.284Z,10.70
2018-08-09T05:27:49.659Z,13.83
2018-08-09T05:30:18.107Z,11.53
2018-08-09T05:32:46.560Z,14.80
2018-08-09T05:35:14.974Z,17.13
2018-08-09T05:37:43.472Z,13.37
2018-08-09T05:40:12.239Z,10.57
2018-08-09T05:42:40.756Z,19.63
2018-08-09T05:45:09.179Z,12.20
2018-08-09T05:47:37.607Z,17.30
2018-08-09T05:50:06.476Z,18.60
2018-08-09T05:52:34.880Z,12.03
2018-08-09T05:55:03.420Z,13.77
2018-08-09T05:57:31.852Z,12.53
2018-08-09T06:00:00.418Z,13.33
2018-08-09T06:02:28.858Z,14.10
2018-08-09T06:04:57.270Z,12.77
2018-08-09T06:07:25.757Z,14.63
2018-08-09T06:09:54.164Z,13.67
2018-08-09T06:12:22.589Z,18.73
2018-08-09T06:14:51.296Z,13.70
2018-08-09T06:17:19.699Z,14.73
2018-08-09T06:19:48.119Z,15.77
2018-08-09T06:22:16.593Z,14.87
2018-08-09T06:24:45.011Z,11.53
2018-08-09T06:27:13.440Z,16.07
2018-08-09T06:29:41.871Z,19.10
2018-08-09T06:32:10.304Z,16.20
2018-08-09T06:34:38.702Z,12.40
2018-08-09T06:37:07.160Z,13.10
2018-08-09T06:39:35.592Z,24.93
2018-08-09T06:42:04.102Z,12.90
2018-08-09T06:44:32.761Z,13.83
2018-08-09T06:47:01.221Z,10.07
2018-08-09T06:49:29.678Z,16.93
2018-08-09T06:51:58.104Z,16.60
2018-08-09T06:54:26.504Z,19.60
2018-08-09T06:56:55.171Z,18.53
2018-08-09T06:59:23.640Z,12.83
2018-08-09T07:01:52.035Z,18.00
2018-08-09T07:04:20.557Z,16.07
2018-08-09T07:06:49.118Z,13.27
2018-08-09T07:09:17.608Z,13.53
2018-08-09T07:11:46.128Z,21.53
2018-08-09T07:14:14.536Z,13.90
2018-08-09T07:16:42.962Z,15.77
2018-08-09T07:19:11.394Z,13.53
2018-08-09T07:21:39.833Z,17.83
2018-08-09T07:24:08.328Z,9.90
2018-08-09T07:26:37.041Z,14.47
2018-08-09T07:29:05.417Z,11.80
2018-08-09T07:31:33.816Z,9.57
2018-08-09T07:34:02.241Z,13.40
2018-08-09T07:36:30.696Z,11.00
2018-08-09T07:38:59.220Z,15.73
2018-08-09T07:41:27.626Z,17.53
2018-08-09T07:43:56.009Z,11.03
2018-08-09T07:46:24.472Z,7.27
2018-08-09T07:48:53.337Z,7.90
2018-08-09T07:51:21.716Z,15.80
2018-08-09T07:53:50.147Z,12.23
2018-08-09T07:56:18.551Z,18.53
2018-08-09T07:58:46.979Z,12.43
2018-08-09T08:01:15.364Z,8.57
2018-08-09T08:03:43.789Z,8.60
2018-08-09T08:06:12.413Z,13.73
2018-08-09T08:08:40.768Z,9.23
2018-08-09T08:11:09.241Z,10.70
2018-08-09T08:13:37.752Z,14.40
2018-08-09T08:16:06.703Z,16.67
2018-08-09T08:18:35.151Z,21.90
2018-08-09T08:21:03.628Z,18.27
2018-08-09T08:23:32.033Z,10.23
2018-08-09T08:26:00.542Z,9.87
2018-08-09T08:28:28.924Z,15.53
2018-08-09T08:30:57.377Z,12.10
2018-08-09T08:33:25.804Z,14.53
2018-08-09T08:35:54.336Z,26.27
2018-08-09T08:38:22.816Z,15.80
2018-08-09T08:40:51.268Z,10.43
2018-08-09T08:43:19.671Z,10.27
2018-08-09T08:45:48.144Z,12.43
2018-08-09T08:48:16.775Z,11.77
2018-08-09T08:50:45.154Z,11.90
2018-08-09T08:53:13.621Z,9.33
2018-08-09T08:55:42.065Z,12.33
2018-08-09T08:58:10.542Z,9.73
2018-08-09T09:00:39.184Z,9.83
2018-08-09T09:03:07.906Z,8.27
2018-08-09T09:05:36.321Z,6.90
2018-08-09T09:08:05.274Z,6.63
2018-08-09T09:10:33.705Z,12.73
2018-08-09T09:13:02.126Z,11.70
2018-08-09T09:15:30.809Z,11.03
2018-08-09T09:17:59.247Z,12.43
2018-08-09T09:20:27.668Z,11.07
2018-08-09T09:22:56.172Z,8.60
2018-08-09T09:25:24.816Z,7.80
2018-08-09T09:27:53.289Z,12.40
2018-08-09T09:30:21.668Z,17.00
2018-08-09T09:32:51.225Z,21.80
2018-08-09T09:35:19.834Z,19.97
2018-08-09T09:37:48.424Z,24.70
2018-08-09T09:40:16.929Z,31.53
2018-08-09T09:42:45.588Z,32.37
2018-08-09T09:45:14.156Z,15.83
2018-08-09T09:47:42.581Z,20.63
2018-08-09T09:50:11.940Z,17.73
2018-08-09T09:52:40.709Z,17.10
2018-08-09T09:55:09.432Z,24.40
2018-08-09T09:57:38.300Z,16.17
2018-08-09T10:00:12.211Z,21.23
2018-08-09T10:02:40.687Z,12.30
2018-08-09T10:05:09.112Z,17.47
2018-08-09T10:07:37.593Z,10.80
2018-08-09T10:10:06.078Z,15.50
2018-08-09T10:12:34.814Z,12.13
2018-08-09T10:15:03.265Z,11.80
2018-08-09T10:17:31.677Z,13.20
2018-08-09T10:20:00.388Z,14.20
2018-08-09T10:22:28.806Z,12.90
2018-08-09T10:24:57.412Z,19.17
2018-08-09T10:27:26.076Z,16.67
2018-08-09T10:29:54.569Z,12.33
2018-08-09T10:32:23.168Z,16.10
2018-08-09T10:34:51.740Z,13.37
2018-08-09T10:37:20.313Z,15.00
2018-08-09T10:39:48.888Z,14.17
2018-08-09T10:42:17.337Z,18.60
2018-08-09T10:44:45.997Z,17.90
2018-08-09T10:47:14.717Z,19.33
2018-08-09T10:49:43.160Z,16.70
2018-08-09T10:52:11.600Z,16.23
2018-08-09T10:54:40.370Z,14.83
2018-08-09T10:57:08.864Z,14.40
2018-08-09T10:59:37.783Z,16.57
2018-08-09T11:02:06.265Z,18.30
2018-08-09T11:04:34.693Z,17.80
2018-08-09T11:07:03.151Z,17.80
2018-08-09T11:09:31.569Z,17.27
2018-08-09T11:11:59.954Z,17.87
2018-08-09T11:14:28.526Z,25.90
2018-08-09T11:16:56.962Z,15.67
2018-08-09T11:19:25.388Z,21.07
2018-08-09T11:21:54.067Z,17.03
2018-08-09T11:24:22.480Z,14.40
2018-08-09T11:26:50.971Z,14.23
2018-08-09T11:29:20.380Z,19.67
2018-08-09T11:31:48.957Z,18.43
2018-08-09T11:34:17.377Z,13.80
2018-08-09T11:36:45.833Z,13.17
2018-08-09T11:39:14.224Z,17.23
2018-08-09T11:41:42.849Z,15.30
2018-08-09T11:44:11.788Z,17.90
2018-08-09T11:46:40.175Z,18.13
2018-08-09T11:49:08.886Z,20.00
2018-08-09T11:51:37.268Z,13.90
2018-08-09T11:54:06.480Z,20.87
2018-08-09T11:56:34.936Z,13.20
2018-08-09T11:59:03.338Z,21.47
2018-08-09T12:01:32.019Z,17.90
2018-08-09T12:04:00.450Z,16.27
2018-08-09T12:06:28.844Z,16.27
2018-08-09T12:08:57.720Z,18.10
2018-08-09T12:11:26.225Z,13.20
2018-08-09T12:13:54.616Z,14.47
2018-08-09T12:16:23.288Z,13.17
2018-08-09T12:18:51.732Z,18.70
2018-08-09T12:21:20.264Z,13.53
2018-08-09T12:23:48.697Z,22.03
2018-08-09T12:26:17.124Z,15.50
2018-08-09T12:28:45.753Z,13.77
2018-08-09T12:31:14.178Z,19.80
2018-08-09T12:33:42.640Z,16.53
2018-08-09T12:36:11.385Z,20.30
2018-08-09T12:38:39.892Z,16.63
2018-08-09T12:41:08.496Z,17.37
2018-08-09T12:43:37.330Z,14.23
2018-08-09T12:46:06.401Z,20.50
2018-08-09T12:48:35.009Z,15.13
2018-08-09T12:51:03.549Z,17.60
2018-08-09T12:53:32.132Z,22.30
2018-08-09T12:56:00.741Z,26.93
2018-08-09T12:58:29.144Z,26.23
2018-08-09T13:00:57.783Z,25.43
2018-08-09T13:03:26.460Z,18.20
2018-08-09T13:05:54.905Z,22.07
2018-08-09T13:08:23.384Z,23.77
2018-08-09T13:10:51.909Z,18.67
2018-08-09T13:13:20.333Z,22.07
2018-08-09T13:15:48.777Z,19.53
2018-08-09T13:18:17.323Z,15.23
2018-08-09T13:20:45.773Z,19.13
2018-08-09T13:23:14.244Z,27.33
2018-08-09T13:25:42.686Z,32.30
2018-08-09T13:28:11.128Z,35.73
2018-08-09T13:30:39.700Z,27.00
2018-08-09T13:33:08.548Z,32.63
2018-08-09T13:35:36.998Z,30.90
2018-08-09T13:38:05.577Z,32.47
2018-08-09T13:40:33.949Z,27.53
2018-08-09T13:43:02.511Z,26.20
2018-08-09T13:45:31.037Z,30.97
2018-08-09T13:47:59.479Z,29.70
2018-08-09T13:50:27.928Z,31.23
2018-08-09T13:52:56.444Z,31.37
2018-08-09T13:55:24.890Z,36.67
2018-08-09T13:57:53.316Z,30.53
2018-08-09T14:00:21.744Z,32.00
2018-08-09T14:02:50.220Z,32.93
2018-08-09T14:05:18.636Z,28.10
2018-08-09T14:07:47.312Z,27.27
2018-08-09T14:10:15.936Z,28.27
2018-08-09T14:12:44.386Z,24.30
2018-08-09T14:15:14.276Z,26.83
2018-08-09T14:17:42.768Z,28.10
2018-08-09T14:20:13.613Z,26.10
2018-08-09T14:22:42.201Z,24.50
2018-08-09T14:25:10.809Z,24.37
2018-08-09T14:27:39.233Z,18.73
2018-08-09T14:30:09.277Z,13.37
2018-08-09T14:32:37.932Z,14.50
2018-08-09T14:35:08.844Z,14.77
2018-08-09T14:37:37.343Z,15.30
2018-08-09T14:40:06.863Z,12.30
2018-08-09T14:42:35.364Z,14.03
2018-08-09T14:45:05.089Z,13.23
2018-08-09T14:47:33.510Z,19.57
2018-08-09T14:50:01.952Z,17.10
2018-08-09T14:52:30.412Z,23.40
2018-08-09T14:54:58.836Z,19.20
2018-08-09T14:57:27.359Z,18.23
2018-08-09T14:59:56.121Z,24.20
2018-08-09T15:02:24.559Z,21.40
2018-08-09T15:04:53.009Z,17.53
2018-08-09T15:07:21.495Z,19.63
2018-08-09T15:09:49.979Z,16.97
2018-08-09T15:12:18.457Z,20.60
2018-08-09T15:14:46.937Z,18.93
2018-08-09T15:17:15.401Z,19.70
2018-08-09T15:19:43.815Z,26.80
2018-08-09T15:22:12.241Z,17.03
2018-08-09T15:24:40.713Z,24.03
2018-08-09T15:27:09.189Z,18.40
2018-08-09T15:29:37.657Z,17.10
2018-08-09T15:32:06.145Z,16.53
2018-08-09T15:34:34.536Z,19.57
2018-08-09T15:37:03.239Z,20.63
2018-08-09T15:39:31.653Z,16.17
2018-08-09T15:42:00.094Z,13.90
2018-08-09T15:44:28.550Z,15.13
2018-08-09T15:46:57.021Z,15.03
2018-08-09T15:49:25.488Z,17.53
2018-08-09T15:51:54.088Z,14.20
2018-08-09T15:54:22.550Z,12.43
2018-08-09T15:56:51.066Z,15.03
2018-08-09T15:59:19.478Z,9.00
2018-08-09T16:01:48.068Z,6.17
2018-08-09T16:04:16.520Z,5.83
2018-08-09T16:06:44.935Z,5.83
2018-08-09T16:09:16.056Z,3.80
2018-08-09T16:11:44.620Z,4.43
2018-08-09T16:14:13.228Z,5.53
2018-08-09T16:16:41.674Z,4.77
2018-08-09T16:19:10.859Z,4.80
2018-08-09T16:21:39.417Z,3.70
2018-08-09T16:24:07.977Z,8.30
2018-08-09T16:26:36.477Z,4.13
2018-08-09T16:29:05.967Z,3.93
2018-08-09T16:31:34.466Z,4.90
2018-08-09T16:34:03.041Z,6.57
2018-08-09T16:36:31.534Z,6.20
2018-08-09T16:39:00.117Z,4.60
2018-08-09T16:41:28.574Z,5.20
2018-08-09T16:43:57.036Z,3.23
2018-08-09T16:46:25.671Z,12.73
2018-08-09T16:48:54.609Z,4.03
2018-08-09T16:51:23.084Z,3.43
2018-08-09T16:53:51.524Z,5.90
2018-08-09T16:56:20.376Z,5.47
2018-08-09T16:58:49.203Z,3.30
2018-08-09T17:01:17.840Z,5.47
2018-08-09T17:03:46.321Z,3.73
2018-08-09T17:06:14.736Z,4.00
2018-08-09T17:08:43.256Z,4.60
2018-08-09T17:11:11.685Z,4.80
2018-08-09T17:13:40.265Z,11.50
2018-08-09T17:16:08.803Z,5.67
2018-08-09T17:18:37.422Z,2.93
2018-08-09T17:21:05.976Z,4.63
2018-08-09T17:23:34.453Z,7.17
2018-08-09T17:26:03.080Z,5.30
2018-08-09T17:28:31.510Z,3.40
2018-08-09T17:31:00.079Z,4.87
2018-08-09T17:33:28.526Z,2.40
2018-08-09T17:35:56.946Z,5.63
2018-08-09T17:38:25.396Z,1.93
2018-08-09T17:40:53.911Z,3.37
2018-08-09T17:43:22.411Z,2.90
2018-08-09T17:45:50.852Z,4.13
2018-08-09T17:48:19.342Z,8.90
2018-08-09T17:50:47.764Z,4.93
2018-08-09T17:53:16.558Z,3.87
2018-08-09T17:55:45.159Z,5.93
2018-08-09T17:58:13.604Z,4.60
2018-08-09T18:00:42.132Z,5.97
2018-08-09T18:03:10.859Z,7.70
2018-08-09T18:05:39.325Z,8.20
2018-08-09T18:08:08.118Z,5.50
2018-08-09T18:10:36.949Z,4.50
2018-08-09T18:13:05.579Z,8.43
2018-08-09T18:15:34.125Z,5.73
2018-08-09T18:18:03.431Z,6.90
2018-08-09T18:20:33.794Z,6.10
2018-08-09T18:23:02.279Z,8.37
2018-08-09T18:25:30.708Z,7.47
2018-08-09T18:27:59.347Z,8.17
2018-08-09T18:30:27.832Z,7.00
2018-08-09T18:32:56.667Z,7.07
2018-08-09T18:35:25.125Z,6.27
2018-08-09T18:37:53.610Z,9.80
2018-08-09T18:40:24.500Z,8.43
2018-08-09T18:42:53.058Z,10.33
2018-08-09T18:45:22.325Z,6.00
2018-08-09T18:47:50.836Z,10.10
2018-08-09T18:50:25.336Z,8.30
2018-08-09T18:52:53.887Z,6.67
2018-08-09T18:55:22.361Z,5.30
2018-08-09T18:57:51.162Z,5.83
2018-08-09T19:00:21.762Z,3.90
2018-08-09T19:02:51.080Z,3.90
2018-08-09T19:05:19.620Z,3.03
2018-08-09T19:07:48.225Z,3.30
2018-08-09T19:10:22.835Z,4.80
2018-08-09T19:12:51.736Z,4.43
2018-08-09T19:15:20.372Z,4.10
2018-08-09T19:17:49.028Z,2.93
2018-08-09T19:20:21.127Z,3.80
2018-08-09T19:22:50.077Z,4.73
2018-08-09T19:25:18.913Z,2.40
2018-08-09T19:27:47.405Z,3.30
2018-08-09T19:30:17.466Z,2.97
2018-08-09T19:32:45.985Z,3.27
2018-08-09T19:35:15.818Z,3.60
2018-08-09T19:37:44.405Z,3.50
2018-08-09T19:40:14.665Z,5.23
2018-08-09T19:42:43.566Z,3.40
2018-08-09T19:45:17.513Z,3.73
2018-08-09T19:47:46.250Z,4.30
2018-08-09T19:50:17.724Z,6.93
2018-08-09T19:52:46.451Z,3.90
2018-08-09T19:55:16.472Z,3.80
2018-08-09T19:57:46.340Z,3.90
2018-08-09T20:00:16.826Z,4.20
2018-08-09T20:02:46.633Z,2.33
2018-08-09T20:05:15.341Z,3.77
2018-08-09T20:07:44.176Z,4.30
2018-08-09T20:10:13.636Z,7.73
2018-08-09T20:12:43.208Z,3.93
2018-08-09T20:15:14.678Z,3.20
2018-08-09T20:17:43.241Z,2.30
2018-08-09T20:20:14.418Z,2.97
2018-08-09T20:22:42.907Z,2.50
2018-08-09T20:25:12.307Z,5.50
2018-08-09T20:27:41.239Z,2.20
2018-08-09T20:30:11.349Z,2.70
2018-08-09T20:32:40.819Z,2.87
2018-08-09T20:35:14.940Z,2.90
2018-08-09T20:37:44.500Z,2.47
2018-08-09T20:40:13.512Z,3.33
2018-08-09T20:42:43.189Z,3.10
2018-08-09T20:45:13.441Z,6.23
2018-08-09T20:47:42.043Z,4.30
2018-08-09T20:50:14.180Z,2.37
2018-08-09T20:52:43.774Z,1.70
2018-08-09T20:55:12.222Z,1.97
2018-08-09T20:57:41.773Z,1.47
2018-08-09T21:00:13.876Z,1.60
2018-08-09T21:02:43.050Z,1.70
2018-08-09T21:05:20.976Z,1.63
2018-08-09T21:07:50.041Z,1.63
2018-08-09T21:10:18.508Z,2.50
2018-08-09T21:12:47.366Z,2.60
2018-08-09T21:15:16.435Z,2.27
2018-08-09T21:17:44.956Z,1.63
2018-08-09T21:20:14.380Z,4.80
2018-08-09T21:22:43.813Z,1.73
2018-08-09T21:25:12.789Z,1.70
2018-08-09T21:27:41.354Z,3.13
2018-08-09T21:30:12.375Z,2.53
2018-08-09T21:32:40.848Z,1.60
2018-08-09T21:35:10.284Z,1.63
2018-08-09T21:37:39.907Z,1.67
2018-08-09T21:40:09.793Z,1.50
2018-08-09T21:42:38.420Z,1.43
2018-08-09T21:45:12.893Z,1.30
2018-08-09T21:47:42.037Z,1.47
2018-08-09T21:50:13.155Z,5.90
2018-08-09T21:52:42.363Z,1.50
2018-08-09T21:55:11.825Z,5.10
2018-08-09T21:57:40.824Z,2.50
2018-08-09T22:00:17.877Z,2.00
2018-08-09T22:02:46.617Z,1.60
2018-08-09T22:05:20.701Z,3.93
2018-08-09T22:07:54.724Z,4.30
2018-08-09T22:10:28.795Z,6.33
2018-08-09T22:13:02.545Z,4.30
2018-08-09T22:15:36.642Z,1.40
2018-08-09T22:18:10.868Z,2.23
2018-08-09T22:20:44.997Z,1.77
2018-08-09T22:23:13.581Z,1.47
2018-08-09T22:25:41.984Z,3.17
2018-08-09T22:28:10.544Z,1.20
2018-08-09T22:30:39.002Z,4.20
2018-08-09T22:33:07.427Z,1.53
2018-08-09T22:35:35.868Z,1.20
2018-08-09T22:38:04.535Z,1.43
2018-08-09T22:40:33.245Z,2.30
2018-08-09T22:43:01.632Z,2.20
2018-08-09T22:45:30.449Z,3.53
2018-08-09T22:47:58.840Z,4.30
2018-08-09T22:50:27.307Z,1.97
2018-08-09T22:52:55.900Z,1.80
2018-08-09T22:55:24.297Z,3.23
2018-08-09T22:57:52.761Z,3.53
2018-08-09T23:00:23.849Z,1.90
2018-08-09T23:02:52.700Z,4.10
2018-08-09T23:05:21.482Z,3.27
2018-08-09T23:07:50.372Z,5.30
2018-08-09T23:10:19.121Z,3.33
2018-08-09T23:12:47.682Z,4.97
2018-08-09T23:15:16.148Z,6.20
2018-08-09T23:17:44.734Z,8.83
2018-08-09T23:20:13.193Z,5.50
2018-08-09T23:22:41.665Z,3.80
2018-08-09T23:25:12.821Z,4.53
2018-08-09T23:27:41.910Z,8.30
2018-08-09T23:30:11.429Z,8.50
2018-08-09T23:32:39.904Z,4.70
2018-08-09T23:35:10.232Z,5.77
2018-08-09T23:37:38.648Z,4.63
2018-08-09T23:40:09.356Z,4.93
2018-08-09T23:42:38.420Z,6.77
2018-08-09T23:45:08.909Z,4.77
2018-08-09T23:47:38.962Z,4.43
2018-08-09T23:50:09.434Z,2.20
2018-08-09T23:52:38.895Z,5.53
2018-08-09T23:55:10.190Z,4.83
2018-08-09T23:57:39.035Z,3.37
